createdAt,value
2018-08-22T00:00:53.152Z,97155.41
2018-08-22T00:03:21.484Z,97152.91
2018-08-22T00:05:49.854Z,97155.94
2018-08-22T00:08:22.324Z,97151.13
2018-08-22T00:10:50.687Z,97151.73
2018-08-22T00:13:18.999Z,97149.28
2018-08-22T00:15:47.339Z,97146.09
2018-08-22T00:18:15.673Z,97151.93
2018-08-22T00:20:44.035Z,97149.41
2018-08-22T00:23:12.387Z,97149.64
2018-08-22T00:25:40.767Z,97150.52
2018-08-22T00:28:09.132Z,97151.33
2018-08-22T00:30:37.487Z,97143.70
2018-08-22T00:33:05.823Z,97142.86
2018-08-22T00:35:34.164Z,97130.86
2018-08-22T00:38:02.538Z,97133.77
2018-08-22T00:40:30.892Z,97130.05
2018-08-22T00:42:59.231Z,97135.53
2018-08-22T00:45:27.571Z,97139.75
2018-08-22T00:47:55.903Z,97128.86
2018-08-22T00:50:24.278Z,97130.92
2018-08-22T00:52:52.608Z,97128.56
2018-08-22T00:55:21.039Z,97128.27
2018-08-22T00:57:49.399Z,97126.02
2018-08-22T01:00:17.736Z,97125.42
2018-08-22T01:02:46.709Z,97121.66
2018-08-22T01:05:15.028Z,97120.63
2018-08-22T01:07:43.379Z,97123.96
2018-08-22T01:10:11.711Z,97120.34
2018-08-22T01:12:40.044Z,97120.52
2018-08-22T01:15:08.376Z,97120.24
2018-08-22T01:17:36.728Z,97115.73
2018-08-22T01:20:05.732Z,97112.16
2018-08-22T01:22:34.112Z,97110.73
2018-08-22T01:25:02.464Z,97116.71
2018-08-22T01:27:30.837Z,97113.34
2018-08-22T01:29:59.167Z,97112.32
2018-08-22T01:32:27.530Z,97118.22
2018-08-22T01:34:55.864Z,97115.88
2018-08-22T01:37:24.203Z,97117.84
2018-08-22T01:39:52.537Z,97114.91
2018-08-22T01:42:20.895Z,97114.52
2018-08-22T01:44:49.252Z,97108.52
2018-08-22T01:47:17.632Z,97108.14
2018-08-22T01:49:46.387Z,97110.19
2018-08-22T01:52:14.715Z,97111.93
2018-08-22T01:54:43.051Z,97110.91
2018-08-22T01:57:11.435Z,97107.50
2018-08-22T01:59:40.873Z,97106.61
2018-08-22T02:02:09.231Z,97105.37
2018-08-22T02:04:37.576Z,97105.13
2018-08-22T02:07:06.132Z,97105.72
2018-08-22T02:09:34.487Z,97105.27
2018-08-22T02:12:02.871Z,97104.83
2018-08-22T02:14:31.207Z,97108.92
2018-08-22T02:16:59.918Z,97111.22
2018-08-22T02:19:28.388Z,97112.72
2018-08-22T02:21:56.728Z,97107.45
2018-08-22T02:24:25.035Z,97108.58
2018-08-22T02:26:53.512Z,97104.72
2018-08-22T02:29:21.867Z,97105.21
2018-08-22T02:31:50.296Z,97107.69
2018-08-22T02:34:19.068Z,97099.27
2018-08-22T02:36:47.733Z,97103.13
2018-08-22T02:39:16.053Z,97099.45
2018-08-22T02:41:44.396Z,97101.09
2018-08-22T02:44:12.708Z,97096.77
2018-08-22T02:46:41.048Z,97101.42
2018-08-22T02:49:13.556Z,97101.80
2018-08-22T02:51:42.412Z,97093.42
2018-08-22T02:54:10.766Z,97101.91
2018-08-22T02:56:39.103Z,97104.24
2018-08-22T03:01:35.411Z,97098.59
2018-08-22T03:04:03.772Z,97106.48
2018-08-22T03:06:32.093Z,97103.25
2018-08-22T03:09:00.417Z,97105.80
2018-08-22T03:11:28.864Z,97110.29
2018-08-22T03:13:57.220Z,97109.59
2018-08-22T03:16:25.545Z,97113.73
2018-08-22T03:18:53.892Z,97113.89
2018-08-22T03:21:22.236Z,97107.40
2018-08-22T03:23:51.209Z,97109.15
2018-08-22T03:26:19.532Z,97111.47
2018-08-22T03:28:47.872Z,97111.27
2018-08-22T03:31:16.200Z,97101.75
2018-08-22T03:33:44.559Z,97104.84
2018-08-22T03:36:12.977Z,97102.94
2018-08-22T03:38:41.315Z,97102.34
2018-08-22T03:41:09.642Z,97097.46
2018-08-22T03:43:37.993Z,97099.03
2018-08-22T03:46:06.345Z,97091.36
2018-08-22T03:48:34.708Z,97096.08
2018-08-22T03:51:03.036Z,97091.30
2018-08-22T03:53:31.367Z,97082.73
2018-08-22T03:55:59.726Z,97082.33
2018-08-22T03:58:28.080Z,97082.00
2018-08-22T04:00:56.688Z,97080.56
2018-08-22T04:03:25.056Z,97079.78
2018-08-22T04:05:53.384Z,97074.09
2018-08-22T04:08:21.748Z,97079.98
2018-08-22T04:10:50.184Z,97080.66
2018-08-22T04:13:18.567Z,97082.20
2018-08-22T04:15:46.925Z,97086.53
2018-08-22T04:18:15.288Z,97080.66
2018-08-22T04:20:43.612Z,97081.45
2018-08-22T04:23:11.983Z,97088.75
2018-08-22T04:25:40.295Z,97085.77
2018-08-22T04:28:08.662Z,97086.16
2018-08-22T04:30:37.001Z,97081.36
2018-08-22T04:33:05.532Z,97081.33
2018-08-22T04:35:33.852Z,97085.80
2018-08-22T04:38:02.300Z,97088.69
2018-08-22T04:40:30.636Z,97082.73
2018-08-22T04:42:58.993Z,97084.28
2018-08-22T04:45:27.332Z,97081.52
2018-08-22T04:47:55.704Z,97085.48
2018-08-22T04:50:24.067Z,97092.13
2018-08-22T04:52:52.397Z,97091.29
2018-08-22T04:55:20.767Z,97096.87
2018-08-22T04:57:49.199Z,97103.84
2018-08-22T05:00:17.516Z,97100.89
2018-08-22T05:02:45.856Z,97104.84
2018-08-22T05:05:14.216Z,97105.28
2018-08-22T05:07:42.560Z,97101.21
2018-08-22T05:10:11.089Z,97108.13
2018-08-22T05:12:39.425Z,97104.09
2018-08-22T05:15:07.785Z,97102.52
2018-08-22T05:17:36.128Z,97100.16
2018-08-22T05:20:04.652Z,97105.71
2018-08-22T05:22:32.993Z,97101.29
2018-08-22T05:25:03.616Z,97101.41
2018-08-22T05:27:32.014Z,97100.01
2018-08-22T05:30:00.385Z,97101.11
2018-08-22T05:32:28.736Z,97101.06
2018-08-22T05:34:57.080Z,97097.69
2018-08-22T05:37:25.407Z,97097.23
2018-08-22T05:39:53.763Z,97096.70
2018-08-22T05:42:22.104Z,97095.34
2018-08-22T05:44:50.915Z,97097.31
2018-08-22T05:47:19.268Z,97095.95
2018-08-22T05:49:47.620Z,97096.66
2018-08-22T05:52:15.967Z,97094.49
2018-08-22T05:54:44.316Z,97086.44
2018-08-22T05:57:12.654Z,97099.27
2018-08-22T05:59:41.267Z,97092.66
2018-08-22T06:02:10.013Z,97087.64
2018-08-22T06:04:38.364Z,97090.88
2018-08-22T06:07:06.876Z,97090.72
2018-08-22T06:09:35.224Z,97091.94
2018-08-22T06:12:03.551Z,97091.78
2018-08-22T06:14:31.908Z,97090.28
2018-08-22T06:17:00.260Z,97081.52
2018-08-22T06:19:28.833Z,97083.02
2018-08-22T06:21:57.156Z,97082.41
2018-08-22T06:24:25.508Z,97082.74
2018-08-22T06:26:53.840Z,97088.53
2018-08-22T06:29:22.299Z,97084.30
2018-08-22T06:31:50.984Z,97083.25
2018-08-22T06:34:19.325Z,97079.44
2018-08-22T06:36:47.680Z,97077.38
2018-08-22T06:39:16.060Z,97085.22
2018-08-22T06:41:44.400Z,97090.89
2018-08-22T06:44:13.269Z,97087.66
2018-08-22T06:46:41.592Z,97092.19
2018-08-22T06:49:09.944Z,97096.33
2018-08-22T06:51:38.287Z,97096.67
2018-08-22T06:54:06.731Z,97096.64
2018-08-22T06:56:35.053Z,97090.42
2018-08-22T06:59:03.388Z,97092.42
2018-08-22T07:01:31.748Z,97093.50
2018-08-22T07:04:00.509Z,97094.72
2018-08-22T07:06:28.860Z,97091.38
2018-08-22T07:08:57.304Z,97089.42
2018-08-22T07:11:25.659Z,97081.83
2018-08-22T07:13:54.038Z,97087.21
2018-08-22T07:16:22.389Z,97084.44
2018-08-22T07:18:51.128Z,97083.16
2018-08-22T07:21:19.473Z,97081.45
2018-08-22T07:23:47.840Z,97083.61
2018-08-22T07:26:16.217Z,97088.48
2018-08-22T07:28:44.573Z,97091.73
2018-08-22T07:31:12.921Z,97082.00
2018-08-22T07:33:41.272Z,97088.27
2018-08-22T07:36:10.473Z,97089.77
2018-08-22T07:38:38.804Z,97092.27
2018-08-22T07:41:07.156Z,97091.95
2018-08-22T07:43:35.488Z,97094.95
2018-08-22T07:46:03.872Z,97098.06
2018-08-22T07:48:32.229Z,97096.95
2018-08-22T07:51:01.208Z,97100.78
2018-08-22T07:53:29.624Z,97094.28
2018-08-22T07:55:57.924Z,97095.81
2018-08-22T07:58:26.596Z,97089.42
2018-08-22T08:00:54.932Z,97096.63
2018-08-22T08:03:23.256Z,97092.73
2018-08-22T08:05:51.644Z,97090.22
2018-08-22T08:08:19.992Z,97094.61
2018-08-22T08:10:48.389Z,97093.25
2018-08-22T08:13:22.105Z,97093.83
2018-08-22T08:15:50.461Z,97095.52
2018-08-22T08:18:18.825Z,97097.27
2018-08-22T08:20:47.189Z,97087.43
2018-08-22T08:23:15.520Z,97092.96
2018-08-22T08:25:43.880Z,97089.58
2018-08-22T08:28:12.204Z,97089.94
2018-08-22T08:30:40.577Z,97085.23
2018-08-22T08:33:08.924Z,97089.52
2018-08-22T08:35:37.311Z,97090.92
2018-08-22T08:38:05.719Z,97082.70
2018-08-22T08:40:34.086Z,97085.16
2018-08-22T08:43:03.295Z,97085.14
2018-08-22T08:45:31.648Z,97081.78
2018-08-22T08:47:59.992Z,97087.30
2018-08-22T08:50:28.347Z,97089.36
2018-08-22T08:52:56.681Z,97084.98
2018-08-22T08:55:25.044Z,97088.14
2018-08-22T08:57:53.408Z,97087.03
2018-08-22T09:00:22.176Z,97081.48
2018-08-22T09:02:50.504Z,97081.21
2018-08-22T09:05:18.884Z,97073.53
2018-08-22T09:07:47.200Z,97066.73
2018-08-22T09:10:15.544Z,97068.52
2018-08-22T09:12:43.868Z,97074.34
2018-08-22T09:15:12.220Z,97062.11
2018-08-22T09:17:40.644Z,97064.44
2018-08-22T09:20:09.092Z,97057.80
2018-08-22T09:22:37.492Z,97062.15
2018-08-22T09:25:05.876Z,97063.62
2018-08-22T09:27:34.196Z,97063.03
2018-08-22T09:30:03.512Z,97057.88
2018-08-22T09:32:31.886Z,97058.92
2018-08-22T09:35:00.363Z,97057.47
2018-08-22T09:37:28.707Z,97050.14
2018-08-22T09:39:57.084Z,97046.84
2018-08-22T09:42:25.420Z,97046.33
2018-08-22T09:44:53.760Z,97047.44
2018-08-22T09:47:22.103Z,97038.14
2018-08-22T09:49:50.455Z,97042.42
2018-08-22T09:52:18.808Z,97041.22
2018-08-22T09:54:56.024Z,97036.41
2018-08-22T09:57:25.884Z,97049.47
2018-08-22T09:59:54.236Z,97040.52
2018-08-22T10:02:22.604Z,97037.34
2018-08-22T10:04:50.935Z,97041.77
2018-08-22T10:07:19.312Z,97042.45
2018-08-22T10:09:47.692Z,97025.59
2018-08-22T10:12:16.412Z,97029.72
2018-08-22T10:14:44.748Z,97027.16
2018-08-22T10:17:14.232Z,97029.37
2018-08-22T10:19:42.746Z,97014.22
2018-08-22T10:22:11.212Z,97024.53
2018-08-22T10:24:39.588Z,97017.75
2018-08-22T10:27:07.975Z,97010.30
2018-08-22T10:29:36.308Z,97006.63
2018-08-22T10:32:06.052Z,96998.63
2018-08-22T10:34:34.528Z,97001.93
2018-08-22T10:37:02.872Z,96992.45
2018-08-22T10:39:31.281Z,96992.14
2018-08-22T10:41:59.593Z,96992.45
2018-08-22T10:44:28.173Z,96991.34
2018-08-22T10:46:56.520Z,96990.36
2018-08-22T10:49:24.849Z,96982.88
2018-08-22T10:51:53.390Z,96995.41
2018-08-22T10:54:21.721Z,96992.88
2018-08-22T10:56:50.073Z,96991.83
2018-08-22T10:59:18.404Z,96988.05
2018-08-22T11:01:46.751Z,96992.93
2018-08-22T11:04:15.085Z,96997.94
2018-08-22T11:06:43.450Z,96989.73
2018-08-22T11:09:12.096Z,96989.05
2018-08-22T11:11:40.456Z,96982.75
2018-08-22T11:14:09.303Z,96977.42
2018-08-22T11:16:37.680Z,96979.41
2018-08-22T11:19:06.004Z,96976.33
2018-08-22T11:21:45.573Z,96965.45
2018-08-22T11:24:25.128Z,96973.20
2018-08-22T11:27:04.649Z,96978.13
2018-08-22T11:29:45.036Z,96978.73
2018-08-22T11:32:24.504Z,96971.00
2018-08-22T11:34:52.448Z,96969.13
2018-08-22T11:37:20.829Z,96974.64
2018-08-22T11:39:51.196Z,96971.81
2018-08-22T11:42:19.868Z,96963.47
2018-08-22T11:44:48.196Z,96971.50
2018-08-22T11:47:16.580Z,96966.72
2018-08-22T11:49:44.909Z,96968.59
2018-08-22T11:52:43.540Z,96960.94
2018-08-22T11:55:11.868Z,96954.95
2018-08-22T11:57:40.209Z,96959.31
2018-08-22T12:00:09.224Z,96967.56
2018-08-22T12:02:37.572Z,96948.25
2018-08-22T12:05:06.672Z,96956.53
2018-08-22T12:07:35.016Z,96948.98
2018-08-22T12:10:03.369Z,96946.42
2018-08-22T12:12:31.721Z,96944.02
2018-08-22T12:15:00.061Z,96940.64
2018-08-22T12:17:28.414Z,96951.06
2018-08-22T12:19:56.767Z,96942.20
2018-08-22T12:22:25.116Z,96944.83
2018-08-22T12:24:53.454Z,96937.66
2018-08-22T12:27:21.808Z,96938.96
2018-08-22T12:29:50.152Z,96934.11
2018-08-22T12:32:18.513Z,96930.63
2018-08-22T12:34:46.836Z,96927.82
2018-08-22T12:37:15.445Z,96930.52
2018-08-22T12:39:43.804Z,96924.67
2018-08-22T12:42:12.152Z,96917.57
2018-08-22T12:44:40.512Z,96918.39
2018-08-22T12:47:08.843Z,96923.98
2018-08-22T12:49:37.190Z,96916.30
2018-08-22T12:52:05.780Z,96918.13
2018-08-22T12:54:34.136Z,96911.39
2018-08-22T12:57:02.480Z,96909.67
2018-08-22T12:59:30.831Z,96914.67
2018-08-22T13:01:59.147Z,96908.80
2018-08-22T13:04:27.489Z,96913.84
2018-08-22T13:06:55.806Z,96918.73
2018-08-22T13:09:24.178Z,96903.34
2018-08-22T13:11:52.505Z,96904.44
2018-08-22T13:14:20.860Z,96902.57
2018-08-22T13:16:49.204Z,96892.97
2018-08-22T13:19:17.572Z,96890.25
2018-08-22T13:21:45.895Z,96897.98
2018-08-22T13:24:14.263Z,96888.39
2018-08-22T13:26:42.599Z,96882.88
2018-08-22T13:29:10.948Z,96890.84
2018-08-22T13:31:39.282Z,96893.17
2018-08-22T13:34:07.657Z,96880.45
2018-08-22T13:36:35.993Z,96881.02
2018-08-22T13:39:06.561Z,96877.97
2018-08-22T13:41:34.820Z,96880.19
2018-08-22T13:44:03.425Z,96879.09
2018-08-22T13:46:31.761Z,96876.33
2018-08-22T13:49:00.300Z,96871.22
2018-08-22T13:51:28.644Z,96863.83
2018-08-22T13:53:57.020Z,96877.06
2018-08-22T13:56:25.355Z,96869.36
2018-08-22T13:58:54.024Z,96878.14
2018-08-22T14:01:22.713Z,96871.84
2018-08-22T14:03:51.092Z,96859.61
2018-08-22T14:06:19.444Z,96860.18
2018-08-22T14:08:47.797Z,96857.91
2018-08-22T14:11:16.123Z,96864.37
2018-08-22T14:13:44.863Z,96864.08
2018-08-22T14:16:13.201Z,96855.80
2018-08-22T14:18:41.552Z,96849.19
2018-08-22T14:21:09.900Z,96849.20
2018-08-22T14:23:38.268Z,96847.11
2018-08-22T14:26:07.116Z,96853.00
2018-08-22T14:28:35.497Z,96850.81
2018-08-22T14:31:03.843Z,96855.13
2018-08-22T14:33:32.543Z,96852.52
2018-08-22T14:36:04.568Z,96854.94
2018-08-22T14:38:32.921Z,96844.21
2018-08-22T14:41:01.284Z,96848.78
2018-08-22T14:43:29.656Z,96847.63
2018-08-22T14:45:58.392Z,96848.76
2018-08-22T14:48:26.760Z,96844.81
2018-08-22T14:50:55.100Z,96841.19
2018-08-22T14:53:23.473Z,96848.51
2018-08-22T14:55:51.904Z,96844.59
2018-08-22T14:58:20.173Z,96839.05
2018-08-22T15:00:48.517Z,96842.64
2018-08-22T15:03:17.024Z,96841.08
2018-08-22T15:05:45.856Z,96842.12
2018-08-22T15:08:14.197Z,96834.28
2018-08-22T15:10:45.904Z,96838.82
2018-08-22T15:13:14.260Z,96833.97
2018-08-22T15:15:42.774Z,96827.28
2018-08-22T15:18:11.129Z,96835.30
2018-08-22T15:20:39.457Z,96827.80
2018-08-22T15:23:07.799Z,96824.39
2018-08-22T15:25:36.309Z,96823.18
2018-08-22T15:28:04.668Z,96823.80
2018-08-22T15:30:33.012Z,96823.16
2018-08-22T15:33:01.356Z,96823.84
2018-08-22T15:35:29.736Z,96825.13
2018-08-22T15:37:58.064Z,96814.91
2018-08-22T15:40:26.407Z,96818.00
2018-08-22T15:42:54.788Z,96825.77
2018-08-22T15:45:23.134Z,96821.40
2018-08-22T15:47:51.476Z,96819.52
2018-08-22T15:50:21.168Z,96808.13
2018-08-22T15:52:49.525Z,96808.52
2018-08-22T15:55:18.304Z,96812.84
2018-08-22T15:58:00.696Z,96812.22
2018-08-22T16:00:33.709Z,96806.39
2018-08-22T16:03:03.077Z,96815.77
2018-08-22T16:05:31.700Z,96812.55
2018-08-22T16:08:00.400Z,96801.40
2018-08-22T16:10:29.172Z,96808.15
2018-08-22T16:12:57.546Z,96799.70
2018-08-22T16:15:26.717Z,96801.46
2018-08-22T16:17:56.100Z,96804.09
2018-08-22T16:20:25.661Z,96800.94
2018-08-22T16:22:54.236Z,96806.39
2018-08-22T16:25:33.984Z,96801.53
2018-08-22T16:28:03.464Z,96799.59
2018-08-22T16:30:31.892Z,96794.48
2018-08-22T16:33:00.185Z,96792.16
2018-08-22T16:35:28.532Z,96791.80
2018-08-22T16:38:02.221Z,96796.06
2018-08-22T16:40:37.400Z,96788.53
2018-08-22T16:43:05.820Z,96790.16
2018-08-22T16:45:45.612Z,96786.61
2018-08-22T16:48:18.860Z,96789.86
2018-08-22T16:50:47.267Z,96793.62
2018-08-22T16:53:15.616Z,96788.25
2018-08-22T16:55:43.960Z,96793.41
2018-08-22T16:58:12.324Z,96788.08
2018-08-22T17:00:44.083Z,96786.47
2018-08-22T17:03:12.453Z,96787.09
2018-08-22T17:05:42.508Z,96788.66
2018-08-22T17:08:11.296Z,96784.70
2018-08-22T17:10:54.020Z,96786.09
2018-08-22T17:13:30.744Z,96793.20
2018-08-22T17:16:00.924Z,96796.09
2018-08-22T17:18:29.803Z,96787.80
2018-08-22T17:20:58.424Z,96795.97
2018-08-22T17:23:26.808Z,96794.54
2018-08-22T17:25:55.586Z,96796.69
2018-08-22T17:28:30.315Z,96790.11
2018-08-22T17:30:58.741Z,96793.30
2018-08-22T17:33:31.894Z,96791.31
2018-08-22T17:36:01.877Z,96793.05
2018-08-22T17:38:30.983Z,96794.11
2018-08-22T17:40:59.357Z,96785.97
2018-08-22T17:43:27.700Z,96792.80
2018-08-22T17:45:56.080Z,96789.06
2018-08-22T17:48:24.437Z,96794.53
2018-08-22T17:50:52.796Z,96801.25
2018-08-22T17:53:21.260Z,96794.73
2018-08-22T17:55:51.203Z,96803.69
2018-08-22T17:58:19.840Z,96798.73
2018-08-22T18:00:48.179Z,96801.32
2018-08-22T18:03:16.544Z,96806.95
2018-08-22T18:05:44.871Z,96808.09
2018-08-22T18:08:13.270Z,96814.33
2018-08-22T18:10:41.621Z,96815.39
2018-08-22T18:13:16.343Z,96820.16
2018-08-22T18:15:45.214Z,96819.84
2018-08-22T18:18:13.621Z,96823.42
2018-08-22T18:20:46.799Z,96827.92
2018-08-22T18:23:16.500Z,96831.94
2018-08-22T18:25:50.420Z,96827.87
2018-08-22T18:28:18.794Z,96832.53
2018-08-22T18:30:47.156Z,96830.37
2018-08-22T18:33:16.028Z,96834.81
2018-08-22T18:35:45.696Z,96836.63
2018-08-22T18:38:14.149Z,96836.63
2018-08-22T18:40:42.604Z,96836.42
2018-08-22T18:43:11.275Z,96840.77
2018-08-22T18:45:50.916Z,96844.69
2018-08-22T18:48:19.299Z,96856.22
2018-08-22T18:50:47.640Z,96851.48
2018-08-22T18:53:16.452Z,96856.57
2018-08-22T18:55:44.783Z,96858.31
2018-08-22T18:58:13.143Z,96860.14
2018-08-22T19:00:41.497Z,96861.65
2018-08-22T19:03:10.100Z,96862.67
2018-08-22T19:05:38.820Z,96874.45
2018-08-22T19:08:16.596Z,96871.73
2018-08-22T19:10:47.223Z,96873.38
2018-08-22T19:13:22.956Z,96887.94
2018-08-22T19:15:56.096Z,96885.75
2018-08-22T19:18:24.600Z,96886.75
2018-08-22T19:20:55.211Z,96877.61
2018-08-22T19:23:23.774Z,96887.45
2018-08-22T19:25:53.128Z,96882.78
2018-08-22T19:28:21.460Z,96885.50
2018-08-22T19:30:49.965Z,96885.50
2018-08-22T19:33:22.447Z,96883.81
2018-08-22T19:35:50.896Z,96887.92
2018-08-22T19:38:21.524Z,96891.37
2018-08-22T19:40:50.568Z,96894.78
2018-08-22T19:43:18.901Z,96894.53
2018-08-22T19:45:47.297Z,96897.03
2018-08-22T19:48:15.624Z,96896.91
2018-08-22T19:50:43.983Z,96903.53
2018-08-22T19:53:12.320Z,96898.84
2018-08-22T19:55:40.675Z,96899.42
2018-08-22T19:58:09.275Z,96905.02
2018-08-22T20:00:37.656Z,96899.73
2018-08-22T20:03:06.036Z,96901.77
2018-08-22T20:06:05.268Z,96902.20
2018-08-22T20:08:35.634Z,96905.45
2018-08-22T20:11:04.092Z,96900.09
2018-08-22T20:13:44.276Z,96900.18
2018-08-22T20:16:12.629Z,96903.31
2018-08-22T20:18:40.965Z,96904.80
2018-08-22T20:21:15.873Z,96907.95
2018-08-22T20:23:44.351Z,96909.45
2018-08-22T20:26:12.697Z,96912.39
2018-08-22T20:28:45.195Z,96909.09
2018-08-22T20:31:13.540Z,96920.91
2018-08-22T20:33:51.779Z,96921.08
2018-08-22T20:36:20.132Z,96920.72
2018-08-22T20:38:48.452Z,96918.53
2018-08-22T20:41:17.084Z,96922.91
2018-08-22T20:43:45.395Z,96922.86
2018-08-22T20:46:14.637Z,96920.29
2018-08-22T20:48:43.045Z,96926.00
2018-08-22T20:51:11.417Z,96923.98
2018-08-22T20:53:39.760Z,96924.58
2018-08-22T20:56:09.661Z,96921.74
2018-08-22T20:58:39.579Z,96921.37
2018-08-22T21:01:08.187Z,96925.52
2018-08-22T21:03:36.900Z,96920.56
2018-08-22T21:06:09.188Z,96925.09
2018-08-22T21:08:37.687Z,96916.45
2018-08-22T21:11:06.192Z,96922.14
2018-08-22T21:13:34.544Z,96918.30
2018-08-22T21:16:02.876Z,96912.70
2018-08-22T21:18:31.260Z,96919.20
2018-08-22T21:20:59.624Z,96924.93
2018-08-22T21:23:27.971Z,96927.14
2018-08-22T21:25:56.312Z,96922.84
2018-08-22T21:28:27.424Z,96922.03
2018-08-22T21:30:59.786Z,96925.19
2018-08-22T21:33:29.208Z,96927.36
2018-08-22T21:35:57.544Z,96928.08
2018-08-22T21:38:26.046Z,96935.69
2018-08-22T21:40:54.376Z,96927.09
2018-08-22T21:43:22.792Z,96930.80
2018-08-22T21:45:51.719Z,96934.97
2018-08-22T21:48:26.085Z,96938.22
2018-08-22T21:50:54.440Z,96936.36
2018-08-22T21:53:22.828Z,96933.55
2018-08-22T21:55:52.519Z,96934.26
2018-08-22T21:58:20.901Z,96936.23
2018-08-22T22:00:49.288Z,96934.55
2018-08-22T22:03:22.873Z,96933.00
2018-08-22T22:05:56.718Z,96941.02
2018-08-22T22:08:25.297Z,96936.53
2018-08-22T22:11:03.367Z,96937.58
2018-08-22T22:13:31.901Z,96935.44
2018-08-22T22:16:01.502Z,96936.97
2018-08-22T22:18:31.451Z,96933.16
2018-08-22T22:21:09.824Z,96933.61
2018-08-22T22:23:43.858Z,96933.36
2018-08-22T22:26:12.633Z,96935.78
2018-08-22T22:28:41.352Z,96932.25
2018-08-22T22:31:12.171Z,96929.64
2018-08-22T22:34:03.319Z,96941.55
2018-08-22T22:36:33.187Z,96934.86
2018-08-22T22:39:01.592Z,96936.11
2018-08-22T22:41:30.915Z,96934.59
2018-08-22T22:43:59.284Z,96932.22
2018-08-22T22:46:27.784Z,96934.74
2018-08-22T22:48:56.140Z,96931.55
2018-08-22T22:51:24.488Z,96935.67
2018-08-22T22:53:52.852Z,96934.95
2018-08-22T22:56:21.184Z,96935.33
2018-08-22T22:58:49.535Z,96934.65
2018-08-22T23:01:17.887Z,96938.65
2018-08-22T23:03:46.244Z,96931.25
2018-08-22T23:06:14.604Z,96931.46
2018-08-22T23:08:43.744Z,96929.41
2018-08-22T23:11:12.089Z,96930.88
2018-08-22T23:13:42.032Z,96926.73
2018-08-22T23:16:10.359Z,96924.27
2018-08-22T23:18:38.798Z,96920.13
2018-08-22T23:21:07.080Z,96920.61
2018-08-22T23:23:39.049Z,96919.55
2018-08-22T23:26:15.468Z,96914.57
2018-08-22T23:28:45.092Z,96915.01
2018-08-22T23:31:15.876Z,96920.23
2018-08-22T23:33:44.250Z,96915.72
2018-08-22T23:36:12.587Z,96916.48
2018-08-22T23:38:40.928Z,96911.81
2018-08-22T23:41:09.771Z,96909.77
2018-08-22T23:43:43.180Z,96904.55
2018-08-22T23:46:12.244Z,96906.70
2018-08-22T23:48:41.163Z,96905.22
2018-08-22T23:51:12.236Z,96904.50
2018-08-22T23:53:46.328Z,96901.64
2018-08-22T23:56:26.372Z,96898.46
2018-08-22T23:58:56.192Z,96897.03
